Time;durP1;ratioP1;P1;durP2;ratioP2;P2;SDS_P1;SDS_P2;PMS_P1;PMS_P2;Temp;Humidity;BMP_temperature;BMP_pressure;BME280_temperature;BME280_humidity;BME280_pressure;Samples;Min_cycle;Max_cycle;Signal;HPM_P1;HPM_P2
2023/12/09 00:01:42;;;;;;;5.28;1.10;;;;;;;6.35;80.43;98884.09;4948953;28;20053;-50
2023/12/09 00:04:09;;;;;;;8.15;0.95;;;;;;;6.35;80.26;98873.00;4966645;28;20047;-45
2023/12/09 00:06:36;;;;;;;5.00;1.10;;;;;;;6.36;81.15;98872.97;4964779;28;20666;-46
2023/12/09 00:09:03;;;;;;;6.78;1.10;;;;;;;6.35;80.56;98873.81;4966936;28;20046;-45
2023/12/09 00:11:30;;;;;;;3.42;0.77;;;;;;;6.37;80.46;98866.09;4962217;28;20145;-44
2023/12/09 00:14:03;;;;;;;9.88;1.80;;;;;;;6.37;80.40;98877.25;4959723;28;20054;-53
2023/12/09 00:16:31;;;;;;;1.75;0.80;;;;;;;6.32;80.67;98873.00;4966688;28;20128;-42
2023/12/09 00:18:58;;;;;;;6.88;1.10;;;;;;;6.34;82.08;98866.13;4966459;28;20051;-46
2023/12/09 00:21:27;;;;;;;10.73;1.23;;;;;;;6.35;80.44;98858.38;4963894;28;20604;-51
2023/12/09 00:23:53;;;;;;;6.05;1.15;;;;;;;6.34;81.43;98856.69;4966835;28;20511;-48
2023/12/09 00:26:20;;;;;;;6.35;1.27;;;;;;;6.35;81.87;98868.69;4966955;28;20057;-48
2023/12/09 00:28:47;;;;;;;6.10;1.38;;;;;;;6.38;81.24;98868.66;4965819;28;20121;-50
2023/12/09 00:31:14;;;;;;;9.60;2.00;;;;;;;6.40;80.99;98861.81;4966078;28;20050;-48
2023/12/09 00:33:41;;;;;;;1.90;0.80;;;;;;;6.37;80.70;98851.53;4965228;28;20083;-47
2023/12/09 00:36:08;;;;;;;5.65;1.33;;;;;;;6.41;81.81;98831.78;4961883;28;20051;-44
2023/12/09 00:38:35;;;;;;;9.18;1.35;;;;;;;6.43;82.06;98848.09;4967557;28;20047;-47
2023/12/09 00:41:02;;;;;;;7.50;1.42;;;;;;;6.45;80.55;98851.47;4965884;28;20047;-45
2023/12/09 00:43:29;;;;;;;3.95;0.47;;;;;;;6.47;82.24;98836.91;4964155;28;20528;-42
2023/12/09 00:45:55;;;;;;;7.90;1.65;;;;;;;6.53;81.30;98836.03;4965618;28;20504;-51
2023/12/09 00:48:22;;;;;;;4.05;0.80;;;;;;;6.55;81.95;98842.00;4979034;28;20046;-44
2023/12/09 00:50:49;;;;;;;3.95;1.50;;;;;;;6.54;80.68;98833.44;4961862;28;20669;-51
2023/12/09 00:53:16;;;;;;;3.05;1.77;;;;;;;6.58;81.49;98838.56;4971067;28;20133;-50
2023/12/09 00:55:42;;;;;;;2.97;0.70;;;;;;;6.57;81.20;98842.84;4968264;28;20047;-44
2023/12/09 00:58:09;;;;;;;6.25;1.10;;;;;;;6.63;82.62;98836.81;4968347;28;20054;-46
2023/12/09 01:00:36;;;;;;;5.95;1.15;;;;;;;6.64;82.07;98839.38;4957178;28;20061;-44
2023/12/09 01:03:03;;;;;;;4.47;1.02;;;;;;;6.65;82.47;98837.66;4961016;28;20046;-50
2023/12/09 01:05:30;;;;;;;4.75;1.25;;;;;;;6.67;81.21;98844.53;4979203;28;20448;-46
2023/12/09 01:07:57;;;;;;;8.85;0.73;;;;;;;6.74;82.26;98840.19;4968152;28;20047;-46
2023/12/09 01:10:23;;;;;;;2.42;0.73;;;;;;;6.73;81.06;98843.63;4967142;28;21217;-45
2023/12/09 01:12:50;;;;;;;3.95;0.93;;;;;;;6.75;81.94;98825.59;4976213;28;20050;-50
2023/12/09 01:15:17;;;;;;;2.72;1.38;;;;;;;6.75;82.72;98834.16;4968596;28;20070;-43
2023/12/09 01:17:44;;;;;;;6.07;1.52;;;;;;;6.74;82.52;98829.03;4982768;28;20081;-45
2023/12/09 01:20:11;;;;;;;11.95;2.03;;;;;;;6.68;81.98;98835.94;4971129;28;20053;-49
2023/12/09 01:22:38;;;;;;;2.10;1.17;;;;;;;6.65;81.38;98824.78;4977900;28;20058;-54
2023/12/09 01:25:06;;;;;;;8.32;1.42;;;;;;;6.64;81.74;98823.94;4974913;28;20612;-47
2023/12/09 01:27:33;;;;;;;3.35;1.42;;;;;;;6.62;81.55;98819.69;4970863;28;20054;-50
2023/12/09 01:30:00;;;;;;;3.83;0.68;;;;;;;6.58;81.61;98813.69;4973934;28;20042;-47
2023/12/09 01:32:27;;;;;;;2.95;0.65;;;;;;;6.54;82.59;98791.41;4974836;28;20061;-49
2023/12/09 01:34:55;;;;;;;2.55;1.15;;;;;;;6.52;81.11;98803.44;4975727;28;20587;-43
2023/12/09 01:37:22;;;;;;;3.92;1.23;;;;;;;6.48;82.45;98797.44;4975787;28;20094;-46
2023/12/09 01:39:49;;;;;;;2.35;0.32;;;;;;;6.46;81.62;98798.34;4968705;28;20055;-51
2023/12/09 01:42:16;;;;;;;2.83;0.95;;;;;;;6.49;81.56;98793.19;4973639;28;20054;-47
2023/12/09 01:44:42;;;;;;;6.32;0.82;;;;;;;6.51;82.24;98787.16;4971746;28;20050;-50
2023/12/09 01:47:09;;;;;;;7.95;1.13;;;;;;;6.50;81.42;98769.16;4971806;28;20117;-49
2023/12/09 01:49:36;;;;;;;4.97;1.02;;;;;;;6.48;83.10;98763.19;4971329;28;20043;-47
2023/12/09 01:52:04;;;;;;;9.00;1.13;;;;;;;6.49;82.63;98762.31;4976655;28;20061;-51
2023/12/09 01:54:31;;;;;;;1.70;0.60;;;;;;;6.46;81.52;98757.19;4974502;28;20050;-46
2023/12/09 01:56:58;;;;;;;6.55;0.90;;;;;;;6.47;82.78;98757.16;4971314;28;20326;-48
2023/12/09 01:59:25;;;;;;;4.85;1.13;;;;;;;6.45;81.48;98758.88;4971907;28;20740;-44
2023/12/09 02:01:53;;;;;;;5.65;1.38;;;;;;;6.46;82.70;98754.59;4973487;28;20054;-46
2023/12/09 02:04:19;;;;;;;4.57;0.75;;;;;;;6.41;82.48;98740.06;4969705;28;20043;-46
2023/12/09 02:06:46;;;;;;;1.88;0.88;;;;;;;6.42;83.23;98741.75;4971280;28;20162;-50
2023/12/09 02:09:13;;;;;;;3.97;0.95;;;;;;;6.46;82.78;98721.16;4973507;28;20075;-50
2023/12/09 02:14:26;;;;;;;8.27;1.67;;;;;;;6.45;82.72;98719.47;5029435;28;20398;-47
2023/12/09 02:17:00;;;;;;;3.70;1.02;;;;;;;6.40;82.96;98717.78;5023635;28;20072;-45
2023/12/09 02:19:27;;;;;;;2.42;0.98;;;;;;;6.42;82.87;98713.47;5006630;28;20046;-44
2023/12/09 02:22:04;;;;;;;1.45;1.13;;;;;;;6.45;82.53;98714.31;5008764;28;20128;-58
2023/12/09 02:24:31;;;;;;;0.73;0.65;;;;;;;6.41;82.36;98706.63;5022663;28;20059;-51
2023/12/09 02:27:07;;;;;;;2.97;0.93;;;;;;;6.48;81.83;98704.03;5026872;28;20053;-49
2023/12/09 02:29:49;;;;;;;3.50;1.77;;;;;;;6.45;82.57;98696.31;4992736;28;20551;-43
2023/12/09 02:32:20;;;;;;;3.80;0.88;;;;;;;6.48;83.43;98692.00;5029785;28;20173;-47
2023/12/09 02:34:48;;;;;;;10.10;1.52;;;;;;;6.53;81.93;98690.25;5021382;28;20048;-48
2023/12/09 02:37:18;;;;;;;8.68;0.85;;;;;;;6.50;81.98;98691.97;5021247;28;20054;-47
2023/12/09 02:39:46;;;;;;;5.10;1.00;;;;;;;6.50;82.17;98686.84;5023447;28;20069;-52
2023/12/09 02:42:14;;;;;;;5.68;0.57;;;;;;;6.49;83.14;98674.84;5021675;28;20065;-44
2023/12/09 02:44:42;;;;;;;4.20;1.40;;;;;;;6.52;83.24;98679.97;5020673;28;20057;-48
2023/12/09 02:47:13;;;;;;;2.58;0.60;;;;;;;6.48;81.99;98670.56;5022341;28;20054;-46
2023/12/09 02:49:41;;;;;;;2.63;0.63;;;;;;;6.51;82.76;98673.97;5022733;28;20045;-47
2023/12/09 02:52:10;;;;;;;5.10;0.85;;;;;;;6.52;82.54;98669.69;5022260;28;20076;-47
2023/12/09 02:54:36;;;;;;;23.73;2.85;;;;;;;6.52;82.30;98677.41;5019735;28;20049;-48
2023/12/09 02:57:04;;;;;;;2.15;1.00;;;;;;;6.53;83.30;98663.66;5022926;28;20100;-49
2023/12/09 02:59:31;;;;;;;2.00;0.80;;;;;;;6.50;82.12;98640.53;5022050;28;20056;-47
2023/12/09 03:01:57;;;;;;;3.90;0.77;;;;;;;6.56;82.03;98646.47;5022919;28;20576;-51
2023/12/09 03:04:25;;;;;;;5.47;1.27;;;;;;;6.57;81.44;98642.19;5010957;28;20514;-52
2023/12/09 03:06:52;;;;;;;2.92;0.45;;;;;;;6.58;81.92;98633.59;5019666;28;20108;-41
2023/12/09 03:09:19;;;;;;;2.97;0.98;;;;;;;6.59;81.42;98629.31;5023582;28;20490;-44
2023/12/09 03:11:45;;;;;;;1.92;1.13;;;;;;;6.60;82.96;98626.72;5019740;28;20084;-47
2023/12/09 03:14:12;;;;;;;2.10;1.17;;;;;;;6.58;83.27;98627.63;5018879;28;20056;-45
2023/12/09 03:16:39;;;;;;;6.10;0.47;;;;;;;6.59;82.39;98627.59;5023807;28;20056;-50
2023/12/09 03:19:05;;;;;;;0.50;0.38;;;;;;;6.61;82.49;98636.16;5017224;28;20057;-43
2023/12/09 03:21:32;;;;;;;8.20;1.45;;;;;;;6.60;81.61;98647.31;5018721;28;20046;-42
2023/12/09 03:23:59;;;;;;;1.58;0.60;;;;;;;6.61;83.23;98646.44;5015542;28;20100;-46
2023/12/09 03:26:26;;;;;;;1.65;0.65;;;;;;;6.66;82.57;98631.81;5010050;28;20077;-54
2023/12/09 03:28:52;;;;;;;2.20;0.40;;;;;;;6.73;82.18;98636.91;5010978;28;20439;-48
2023/12/09 03:31:19;;;;;;;2.88;0.65;;;;;;;6.71;81.82;98623.19;5003572;28;20049;-55
2023/12/09 03:33:46;;;;;;;6.28;0.75;;;;;;;6.74;81.98;98605.16;5006067;28;20049;-44
2023/12/09 03:36:14;;;;;;;3.38;0.90;;;;;;;6.78;81.84;98599.97;5018684;28;20761;-46
2023/12/09 03:38:41;;;;;;;4.68;0.93;;;;;;;6.74;82.80;98597.41;5006857;28;20050;-51
2023/12/09 03:41:08;;;;;;;2.55;0.73;;;;;;;6.74;82.14;98587.13;5007689;28;20050;-53
2023/12/09 03:43:35;;;;;;;2.88;1.00;;;;;;;6.79;82.57;98590.53;5004484;28;20502;-42
2023/12/09 03:46:02;;;;;;;2.15;0.77;;;;;;;6.83;83.09;98592.19;5006410;28;20049;-47
2023/12/09 03:48:31;;;;;;;0.80;0.50;;;;;;;6.80;82.54;98592.22;5011421;28;20124;-47
2023/12/09 03:50:58;;;;;;;7.57;0.88;;;;;;;6.80;82.19;98590.47;5005087;28;20054;-48
2023/12/09 03:53:26;;;;;;;5.60;0.90;;;;;;;6.82;83.28;98585.31;5003679;28;20035;-46
2023/12/09 03:55:53;;;;;;;1.45;0.70;;;;;;;6.87;82.81;98588.72;5005453;28;20107;-50
2023/12/09 03:58:22;;;;;;;5.88;0.93;;;;;;;6.89;83.08;98576.66;5000424;28;20164;-43
2023/12/09 04:00:50;;;;;;;3.00;0.45;;;;;;;6.90;83.54;98569.81;5003808;28;20510;-51
2023/12/09 04:03:17;;;;;;;3.47;0.93;;;;;;;6.93;82.59;98555.16;5007373;28;20042;-49
2023/12/09 04:05:44;;;;;;;0.93;0.82;;;;;;;6.97;83.17;98557.72;5008219;28;20150;-42
2023/12/09 04:08:11;;;;;;;1.75;0.95;;;;;;;6.99;82.47;98550.84;5004798;28;20054;-42
2023/12/09 04:10:38;;;;;;;9.98;0.75;;;;;;;7.04;83.79;98543.91;5005019;28;20558;-53
2023/12/09 04:13:04;;;;;;;2.55;1.10;;;;;;;7.01;82.80;98529.34;5008250;28;20159;-47
2023/12/09 04:15:31;;;;;;;2.03;0.93;;;;;;;7.01;83.84;98526.78;5008967;28;20506;-42
2023/12/09 04:17:58;;;;;;;3.70;1.30;;;;;;;7.05;83.94;98519.84;5010503;28;20052;-49
2023/12/09 04:20:25;;;;;;;4.15;0.70;;;;;;;7.05;83.79;98501.81;5011092;28;20046;-48
2023/12/09 04:22:52;;;;;;;5.70;0.43;;;;;;;7.06;83.61;98495.81;5003873;28;20050;-49
2023/12/09 04:25:21;;;;;;;2.60;0.82;;;;;;;7.04;83.89;98482.97;5003072;28;20041;-44
2023/12/09 04:27:48;;;;;;;2.05;0.70;;;;;;;7.01;85.45;98464.13;5002927;28;20108;-50
2023/12/09 04:30:15;;;;;;;3.70;1.02;;;;;;;7.04;85.55;98458.94;5012340;28;20064;-49
2023/12/09 04:32:43;;;;;;;1.38;0.70;;;;;;;7.00;85.00;98450.41;5008242;28;20555;-45
2023/12/09 04:35:10;;;;;;;5.03;0.77;;;;;;;7.04;85.52;98435.78;5005478;28;20054;-50
2023/12/09 04:37:37;;;;;;;3.10;1.90;;;;;;;7.00;85.25;98416.97;5004482;28;20670;-48
2023/12/09 04:40:05;;;;;;;3.40;0.80;;;;;;;6.99;85.03;98401.53;5005721;28;20499;-43
2023/12/09 04:42:31;;;;;;;4.47;0.65;;;;;;;6.97;85.51;98395.53;5002281;28;20057;-56
2023/12/09 04:44:58;;;;;;;6.85;1.17;;;;;;;6.99;86.92;98386.09;5003525;28;20077;-42
2023/12/09 04:47:25;;;;;;;6.53;1.02;;;;;;;7.02;85.68;98380.88;5004385;28;20092;-43
2023/12/09 04:49:52;;;;;;;4.50;0.73;;;;;;;7.07;86.71;98384.25;5008297;28;20049;-52
2023/12/09 04:52:18;;;;;;;1.98;0.93;;;;;;;7.08;87.06;98378.22;5007130;28;20049;-44
2023/12/09 04:54:45;;;;;;;4.00;0.88;;;;;;;7.08;86.66;98370.50;5005683;28;20062;-47
2023/12/09 04:57:12;;;;;;;1.17;0.80;;;;;;;7.07;86.36;98368.78;5005599;28;20058;-45
2023/12/09 04:59:38;;;;;;;3.38;0.85;;;;;;;7.09;85.76;98369.59;5009013;28;20132;-46
2023/12/09 05:02:05;;;;;;;1.77;1.08;;;;;;;7.13;87.28;98360.94;5008062;28;20052;-50
2023/12/09 05:04:32;;;;;;;3.30;0.82;;;;;;;7.13;87.22;98348.06;5007745;28;20042;-47
2023/12/09 05:06:59;;;;;;;6.75;1.13;;;;;;;7.15;87.19;98351.50;5004504;28;20042;-47
2023/12/09 05:09:26;;;;;;;4.40;1.48;;;;;;;7.19;87.14;98337.69;4999162;28;20247;-46
2023/12/09 05:11:52;;;;;;;3.05;0.65;;;;;;;7.19;87.25;98332.53;5004198;28;20060;-49
2023/12/09 05:14:19;;;;;;;4.65;0.80;;;;;;;7.16;87.47;98317.13;5002440;28;20053;-50
2023/12/09 05:16:47;;;;;;;4.10;0.80;;;;;;;7.22;87.38;98312.78;5005097;28;20069;-44
2023/12/09 05:19:14;;;;;;;2.63;1.05;;;;;;;7.16;87.03;98311.16;5000257;28;20565;-50
2023/12/09 05:21:40;;;;;;;3.60;0.85;;;;;;;7.21;88.16;98314.50;5006874;28;20050;-52
2023/12/09 05:24:07;;;;;;;3.00;0.95;;;;;;;7.22;87.20;98321.34;5008578;28;20057;-53
2023/12/09 05:26:34;;;;;;;1.75;0.75;;;;;;;7.23;88.34;98301.59;5001037;28;20127;-48
2023/12/09 05:29:01;;;;;;;2.63;1.02;;;;;;;7.22;87.54;98305.06;5008218;28;20049;-52
2023/12/09 05:31:27;;;;;;;1.63;0.70;;;;;;;7.22;88.29;98310.22;5004434;28;20061;-45
2023/12/09 05:33:54;;;;;;;4.63;1.13;;;;;;;7.22;88.12;98299.91;5006530;28;20061;-46
2023/12/09 05:36:21;;;;;;;1.70;1.08;;;;;;;7.25;87.46;98297.25;5007068;28;20054;-49
2023/12/09 05:38:48;;;;;;;2.92;1.15;;;;;;;7.24;87.64;98293.00;5009467;28;20144;-47
2023/12/09 05:41:14;;;;;;;3.78;1.10;;;;;;;7.22;88.98;98284.47;5005840;28;20477;-47
2023/12/09 05:43:43;;;;;;;2.22;0.50;;;;;;;7.25;88.17;98274.06;5000240;28;20077;-42
2023/12/09 05:46:18;;;;;;;3.03;0.90;;;;;;;7.29;88.00;98274.00;5003496;28;20475;-45
2023/12/09 05:48:45;;;;;;;1.98;1.15;;;;;;;7.28;88.82;98269.75;5006011;28;20054;-46
2023/12/09 05:51:12;;;;;;;1.90;0.52;;;;;;;7.30;88.10;98246.53;5006340;28;20053;-48
2023/12/09 05:53:40;;;;;;;4.45;0.98;;;;;;;7.31;89.61;98240.50;5008031;28;20465;-48
2023/12/09 05:56:10;;;;;;;2.00;0.60;;;;;;;7.34;88.68;98227.56;5005362;28;20498;-47
2023/12/09 05:58:37;;;;;;;0.88;0.63;;;;;;;7.36;88.97;98215.50;4998679;28;20052;-45
2023/12/09 06:01:04;;;;;;;0.90;0.47;;;;;;;7.36;88.63;98207.78;5003800;28;20042;-49
2023/12/09 06:03:31;;;;;;;5.53;0.75;;;;;;;7.37;89.05;98212.06;5005936;28;20050;-47
2023/12/09 06:05:58;;;;;;;1.02;0.73;;;;;;;7.38;88.90;98212.91;5004976;28;20150;-44
2023/12/09 06:08:25;;;;;;;1.98;0.60;;;;;;;7.39;90.19;98205.16;5001673;28;20063;-48
2023/12/09 06:10:51;;;;;;;3.03;0.68;;;;;;;7.44;89.48;98202.50;5002432;28;20046;-47
2023/12/09 06:13:18;;;;;;;1.63;1.05;;;;;;;7.46;90.02;98191.25;5002437;28;20056;-50
2023/12/09 06:15:45;;;;;;;5.45;0.73;;;;;;;7.44;88.78;98190.44;5004505;28;20100;-48
2023/12/09 06:18:16;;;;;;;1.00;0.40;;;;;;;7.49;88.99;98166.34;5004160;28;20066;-44
2023/12/09 06:20:42;;;;;;;2.45;1.02;;;;;;;7.47;89.39;98189.56;5004211;28;20515;-48
2023/12/09 06:23:09;;;;;;;3.88;1.02;;;;;;;7.50;89.23;98165.44;5000994;28;20404;-43
2023/12/09 06:25:36;;;;;;;2.38;0.60;;;;;;;7.52;90.14;98153.38;4998117;28;20124;-50
2023/12/09 06:28:03;;;;;;;1.90;0.52;;;;;;;7.49;89.73;98148.31;5005276;28;20376;-44
2023/12/09 06:30:30;;;;;;;1.38;1.27;;;;;;;7.52;89.69;98148.22;4997288;28;20708;-50
2023/12/09 06:32:56;;;;;;;3.50;1.60;;;;;;;7.50;90.54;98134.53;5004577;28;21037;-50
2023/12/09 06:35:23;;;;;;;0.70;0.50;;;;;;;7.51;90.65;98120.78;5005702;28;20046;-47
2023/12/09 06:37:50;;;;;;;4.90;0.98;;;;;;;7.55;90.18;98106.94;5000506;28;20080;-45
2023/12/09 06:40:17;;;;;;;1.30;0.70;;;;;;;7.56;90.32;98098.31;5004178;28;20187;-44
2023/12/09 06:42:43;;;;;;;2.72;0.93;;;;;;;7.55;89.80;98070.88;5005765;28;20057;-45
2023/12/09 06:45:10;;;;;;;1.90;1.15;;;;;;;7.58;90.33;98075.97;5000568;28;20135;-50
2023/12/09 06:47:37;;;;;;;1.77;0.65;;;;;;;7.55;90.66;98050.25;4998547;28;20046;-52
2023/12/09 06:50:04;;;;;;;2.50;0.50;;;;;;;7.55;89.90;98045.09;5000342;28;20115;-52
2023/12/09 06:52:31;;;;;;;2.80;0.32;;;;;;;7.61;89.63;98028.66;4998894;28;20069;-54
2023/12/09 06:54:57;;;;;;;1.35;0.30;;;;;;;7.61;89.76;98024.38;5001620;28;20053;-46
2023/12/09 06:57:26;;;;;;;2.92;0.50;;;;;;;7.64;89.49;98019.16;5003707;28;20088;-47
2023/12/09 06:59:53;;;;;;;1.42;0.35;;;;;;;7.61;90.19;98019.22;5005384;28;20065;-46
2023/12/09 07:02:19;;;;;;;0.75;0.30;;;;;;;7.63;90.38;98012.28;5003427;28;20049;-46
2023/12/09 07:04:47;;;;;;;1.13;0.77;;;;;;;7.64;89.54;97992.53;5003375;28;20046;-44
2023/12/09 07:07:13;;;;;;;3.13;0.73;;;;;;;7.66;90.13;97995.91;5003291;28;20164;-45
2023/12/09 07:09:47;;;;;;;2.05;1.85;;;;;;;7.68;89.90;97984.69;5002897;28;20625;-48
2023/12/09 07:12:14;;;;;;;2.92;1.00;;;;;;;7.72;89.55;97973.44;5005890;28;20046;-49
2023/12/09 07:14:41;;;;;;;2.50;0.63;;;;;;;7.74;89.50;97951.91;5001880;28;20053;-43
2023/12/09 07:17:07;;;;;;;2.92;1.05;;;;;;;7.73;90.68;97951.06;5007933;28;20045;-48
2023/12/09 07:19:34;;;;;;;1.15;0.80;;;;;;;7.74;90.78;97926.16;5007166;28;20050;-46
2023/12/09 07:22:03;;;;;;;0.73;0.60;;;;;;;7.76;89.89;97924.38;5002940;28;20050;-51
2023/12/09 07:24:30;;;;;;;1.88;0.38;;;;;;;7.70;90.43;97905.59;5002879;28;20050;-47
2023/12/09 07:26:57;;;;;;;1.38;0.80;;;;;;;7.72;90.98;97919.31;5001179;28;20077;-50
2023/12/09 07:29:25;;;;;;;1.48;0.60;;;;;;;7.72;90.03;97906.44;5002812;28;20096;-49
2023/12/09 07:31:53;;;;;;;1.45;0.30;;;;;;;7.77;89.81;97910.63;5008094;28;20046;-52
2023/12/09 07:34:20;;;;;;;0.50;0.20;;;;;;;7.79;90.80;97913.97;5008793;28;20621;-47
2023/12/09 07:36:47;;;;;;;0.70;0.40;;;;;;;7.82;89.47;97906.19;5005192;28;20671;-52
2023/12/09 07:39:13;;;;;;;2.05;0.60;;;;;;;7.80;90.08;97892.50;5003115;28;20490;-48
2023/12/09 07:41:41;;;;;;;1.77;0.30;;;;;;;7.87;89.66;97881.13;5007444;28;20414;-48
2023/12/09 07:44:08;;;;;;;2.28;0.65;;;;;;;7.86;90.05;97871.69;5010017;28;20049;-50
2023/12/09 07:46:34;;;;;;;0.95;0.55;;;;;;;7.88;90.67;97859.63;5006667;28;20046;-49
2023/12/09 07:49:02;;;;;;;1.48;0.30;;;;;;;7.86;90.04;97848.50;5014106;28;20049;-48
2023/12/09 07:51:29;;;;;;;1.15;0.30;;;;;;;7.82;90.85;97841.75;5007148;28;21556;-44
2023/12/09 07:53:55;;;;;;;1.75;0.40;;;;;;;7.86;90.46;97833.03;5007230;28;20124;-46
2023/12/09 07:56:22;;;;;;;0.63;0.43;;;;;;;7.84;90.21;97827.09;5009170;28;20079;-48
2023/12/09 07:58:49;;;;;;;0.55;0.35;;;;;;;7.86;91.17;97837.38;5007264;28;20052;-60
2023/12/09 08:01:15;;;;;;;1.23;0.47;;;;;;;7.87;90.94;97834.72;5007156;28;20042;-48
2023/12/09 08:03:42;;;;;;;0.45;0.25;;;;;;;7.92;90.92;97845.78;5003752;28;20107;-52
2023/12/09 08:06:10;;;;;;;1.13;0.52;;;;;;;7.90;90.70;97826.91;5006225;28;20081;-45
2023/12/09 08:08:37;;;;;;;3.20;1.27;;;;;;;8.00;91.01;97834.41;5007549;28;20431;-53
2023/12/09 08:11:04;;;;;;;0.50;0.20;;;;;;;7.97;90.39;97825.00;5011440;28;20057;-49
2023/12/09 08:13:31;;;;;;;0.60;0.45;;;;;;;7.95;91.35;97817.34;5002771;28;20049;-45
2023/12/09 08:15:58;;;;;;;0.95;0.35;;;;;;;7.96;90.72;97793.25;5006586;28;20058;-50
2023/12/09 08:18:25;;;;;;;0.60;0.30;;;;;;;7.93;90.62;97775.28;5008347;28;20074;-43
2023/12/09 08:20:53;;;;;;;2.38;0.88;;;;;;;7.97;90.54;97748.53;5000800;28;20214;-47
2023/12/09 08:23:19;;;;;;;0.93;0.77;;;;;;;7.90;90.80;97726.38;5006025;28;20444;-49
2023/12/09 08:25:46;;;;;;;0.60;0.40;;;;;;;7.92;91.43;97714.31;5001371;28;20422;-52
2023/12/09 08:28:13;;;;;;;0.47;0.30;;;;;;;7.93;90.90;97674.75;5001255;28;20057;-53
2023/12/09 08:30:39;;;;;;;0.30;0.20;;;;;;;7.91;91.31;97655.06;5009344;28;20126;-49
2023/12/09 08:33:06;;;;;;;0.75;0.75;;;;;;;7.89;91.98;97644.81;5010061;28;20127;-44
2023/12/09 08:35:33;;;;;;;0.57;0.40;;;;;;;7.87;91.55;97623.38;5008333;28;20057;-47
2023/12/09 08:38:00;;;;;;;1.00;0.85;;;;;;;7.83;91.32;97596.03;5009691;28;20460;-48
2023/12/09 08:40:26;;;;;;;0.77;0.30;;;;;;;7.80;92.96;97575.53;5009715;28;20104;-50
2023/12/09 08:42:55;;;;;;;0.60;0.20;;;;;;;7.82;92.67;97558.25;5009683;28;20041;-49
2023/12/09 08:45:22;;;;;;;0.63;0.63;;;;;;;7.80;91.69;97560.06;5008828;28;20049;-48
2023/12/09 08:47:49;;;;;;;0.88;0.40;;;;;;;7.82;92.81;97560.84;5009382;28;20483;-53
2023/12/09 08:50:16;;;;;;;0.95;0.40;;;;;;;7.82;93.02;97537.66;5009049;28;20499;-51
2023/12/09 08:52:45;;;;;;;0.35;0.30;;;;;;;7.82;92.96;97511.88;5009895;28;20049;-52
2023/12/09 08:55:12;;;;;;;0.43;0.35;;;;;;;7.82;92.95;97532.50;5008905;28;20053;-48
2023/12/09 08:57:39;;;;;;;0.63;0.40;;;;;;;7.84;92.15;97531.53;5012080;28;20052;-46
2023/12/09 09:00:08;;;;;;;0.50;0.40;;;;;;;7.83;92.08;97523.84;5009932;28;20108;-43
2023/12/09 09:02:35;;;;;;;1.00;0.50;;;;;;;7.86;92.98;97526.34;5008296;28;20049;-49
2023/12/09 09:05:03;;;;;;;0.88;0.30;;;;;;;7.86;93.08;97539.22;5005933;28;20063;-50
2023/12/09 09:07:30;;;;;;;0.32;0.20;;;;;;;7.90;93.34;97534.84;5007545;28;20069;-47
2023/12/09 09:09:56;;;;;;;0.57;0.57;;;;;;;7.93;93.05;97520.09;5009138;28;20338;-47
2023/12/09 09:12:23;;;;;;;2.80;0.40;;;;;;;7.93;93.34;97519.25;5008038;28;20057;-51
2023/12/09 09:14:50;;;;;;;0.68;0.68;;;;;;;7.97;92.42;97516.53;5007837;28;20132;-50
2023/12/09 09:17:17;;;;;;;0.35;0.30;;;;;;;7.98;92.61;97513.06;5008798;28;20054;-53
2023/12/09 09:19:43;;;;;;;1.25;0.43;;;;;;;8.04;92.52;97506.03;5008481;28;20622;-50
2023/12/09 09:22:10;;;;;;;0.60;0.30;;;;;;;8.06;92.89;97483.59;5008100;28;20049;-45
2023/12/09 09:24:37;;;;;;;0.70;0.70;;;;;;;8.04;92.42;97475.09;5008505;28;20054;-48
2023/12/09 09:27:04;;;;;;;0.40;0.40;;;;;;;8.05;92.41;97469.03;5002165;28;20053;-49
2023/12/09 09:29:30;;;;;;;0.40;0.40;;;;;;;8.11;93.74;97463.69;5008381;28;20049;-51
2023/12/09 09:31:57;;;;;;;0.30;0.30;;;;;;;8.13;92.97;97454.13;5004346;28;20100;-48
2023/12/09 09:34:24;;;;;;;1.08;0.45;;;;;;;8.18;92.68;97464.31;5006983;28;20561;-51
2023/12/09 09:36:50;;;;;;;0.30;0.30;;;;;;;8.21;92.69;97462.44;5007037;28;20137;-44
2023/12/09 09:39:18;;;;;;;3.03;2.28;;;;;;;8.25;92.63;97468.34;5008446;28;20232;-46
2023/12/09 09:41:58;;;;;;;0.63;0.63;;;;;;;8.26;93.11;97453.72;5008801;28;20045;-51
2023/12/09 09:44:28;;;;;;;1.73;0.55;;;;;;;8.32;93.00;97453.50;5010306;28;20038;-48
2023/12/09 09:46:57;;;;;;;1.02;0.90;;;;;;;8.33;92.87;97453.44;5011097;28;20049;-47
2023/12/09 09:49:25;;;;;;;1.38;1.30;;;;;;;8.32;93.19;97443.19;5008238;28;20054;-49
2023/12/09 09:51:56;;;;;;;0.95;0.95;;;;;;;8.33;93.06;97445.72;5008577;28;20041;-50
2023/12/09 09:54:29;;;;;;;0.30;0.30;;;;;;;8.42;92.87;97447.13;5008206;28;20091;-48
2023/12/09 09:56:58;;;;;;;0.20;0.20;;;;;;;8.47;92.75;97458.13;5007311;28;20049;-46
2023/12/09 09:59:25;;;;;;;0.10;0.10;;;;;;;8.52;92.61;97462.25;5007861;28;20052;-47
2023/12/09 10:01:52;;;;;;;0.40;0.30;;;;;;;8.57;92.35;97458.66;5007301;28;20427;-48
2023/12/09 10:04:19;;;;;;;0.52;0.52;;;;;;;8.57;92.89;97452.63;5007931;28;20053;-47
2023/12/09 10:06:47;;;;;;;0.20;0.20;;;;;;;8.66;92.43;97452.31;5008033;28;20454;-47
2023/12/09 10:09:14;;;;;;;0.60;0.55;;;;;;;8.68;92.77;97455.66;5007653;28;20746;-52
2023/12/09 10:11:41;;;;;;;0.30;0.30;;;;;;;8.77;92.54;97445.91;5008500;28;20049;-50
2023/12/09 10:14:08;;;;;;;0.45;0.45;;;;;;;8.78;92.14;97432.94;5007519;28;20042;-47
2023/12/09 10:16:35;;;;;;;0.55;0.55;;;;;;;8.80;92.67;97432.88;5007749;28;20042;-48
2023/12/09 10:19:02;;;;;;;0.20;0.20;;;;;;;8.85;92.50;97428.41;5007059;28;20050;-49
2023/12/09 10:21:29;;;;;;;0.55;0.55;;;;;;;8.89;91.95;97442.88;5006515;28;20053;-50
2023/12/09 10:23:56;;;;;;;0.30;0.20;;;;;;;8.89;92.35;97435.13;5005250;28;20107;-47
2023/12/09 10:26:23;;;;;;;0.40;0.40;;;;;;;8.99;92.06;97431.28;5006911;28;20049;-50
2023/12/09 10:28:50;;;;;;;0.28;0.20;;;;;;;9.00;91.91;97434.72;5006823;28;20049;-45
2023/12/09 10:31:17;;;;;;;0.20;0.20;;;;;;;9.07;92.01;97419.81;5010728;28;20046;-44
2023/12/09 10:33:44;;;;;;;0.10;0.10;;;;;;;9.08;91.88;97406.84;5004075;28;20046;-50
2023/12/09 10:36:12;;;;;;;0.20;0.20;;;;;;;9.11;92.12;97417.06;5011564;28;20046;-45
2023/12/09 10:38:42;;;;;;;0.50;0.50;;;;;;;9.15;92.09;97397.13;5011496;28;20155;-51
2023/12/09 10:41:13;;;;;;;0.40;0.20;;;;;;;9.18;92.02;97397.00;5011049;28;20573;-46
2023/12/09 10:43:40;;;;;;;0.38;0.32;;;;;;;9.31;91.30;97391.34;5015107;28;20050;-50
2023/12/09 10:46:08;;;;;;;0.68;0.68;;;;;;;9.33;90.94;97392.97;5009856;28;20046;-49
2023/12/09 10:48:35;;;;;;;0.20;0.20;;;;;;;9.38;91.87;97382.44;5011727;28;20072;-47
2023/12/09 10:51:03;;;;;;;0.50;0.50;;;;;;;9.40;91.70;97385.81;5011727;28;20094;-47
2023/12/09 10:53:29;;;;;;;0.13;0.13;;;;;;;9.45;91.28;97381.28;5011259;28;20053;-46
2023/12/09 10:55:57;;;;;;;0.32;0.25;;;;;;;9.48;91.54;97378.59;5006420;28;20050;-55
2023/12/09 10:58:24;;;;;;;0.38;0.38;;;;;;;9.57;91.16;97373.94;5010949;28;20046;-47
2023/12/09 11:00:51;;;;;;;0.30;0.30;;;;;;;9.64;90.65;97377.94;5010553;28;20052;-45
2023/12/09 11:03:20;;;;;;;0.70;0.30;;;;;;;9.69;90.83;97376.00;5011017;28;20141;-50
2023/12/09 11:05:51;;;;;;;0.52;0.40;;;;;;;9.76;90.89;97367.09;5011017;28;20045;-50
2023/12/09 11:08:19;;;;;;;2.97;0.82;;;;;;;9.85;90.10;97381.38;5011513;28;20050;-45
2023/12/09 11:10:47;;;;;;;1.52;0.75;;;;;;;9.90;90.48;97371.66;5010836;28;20041;-49
2023/12/09 11:13:14;;;;;;;1.00;0.47;;;;;;;9.96;90.03;97361.97;5009647;28;20136;-46
2023/12/09 11:15:41;;;;;;;2.25;0.93;;;;;;;10.02;90.51;97359.09;5004483;28;20050;-46
2023/12/09 11:18:09;;;;;;;1.33;0.68;;;;;;;10.07;90.22;97348.56;5010939;28;20059;-47
2023/12/09 11:20:39;;;;;;;1.83;0.80;;;;;;;10.14;90.43;97349.97;5007804;28;20066;-48
2023/12/09 11:23:10;;;;;;;0.63;0.45;;;;;;;10.22;89.74;97342.72;5009448;28;20503;-45
2023/12/09 11:25:38;;;;;;;;;;;;;;;10.21;90.06;97338.47;5001836;28;20052;-45
2023/12/09 11:28:05;;;;;;;0.50;0.20;;;;;;;10.34;89.97;97330.94;5010907;28;20018;-52
2023/12/09 11:30:34;;;;;;;0.77;0.50;;;;;;;10.38;90.12;97332.53;5011027;28;20225;-45
2023/12/09 11:33:03;;;;;;;;;;;;;;;10.37;90.25;97330.00;5006078;28;20050;-52
2023/12/09 11:35:33;;;;;;;1.25;0.40;;;;;;;10.46;90.86;97324.41;5010034;28;20550;-46
2023/12/09 11:38:00;;;;;;;1.10;0.50;;;;;;;10.51;89.78;97306.91;4995009;28;20042;-45
2023/12/09 11:40:29;;;;;;;0.68;0.32;;;;;;;10.59;89.64;97297.97;5011900;28;20050;-50
2023/12/09 11:42:57;;;;;;;0.47;0.30;;;;;;;10.58;90.59;97291.13;5010728;28;20042;-49
2023/12/09 11:45:27;;;;;;;0.70;0.70;;;;;;;10.63;90.39;97283.97;5012599;28;20491;-49